createdAt,value
2022-08-08T00:00:50.793Z,19.28
2022-08-08T00:02:46.271Z,19.54
2022-08-08T00:05:21.394Z,19.64
2022-08-08T00:08:14.959Z,21.08
2022-08-08T00:10:53.852Z,21.80
2022-08-08T00:14:15.692Z,20.71
2022-08-08T00:16:24.352Z,21.79
2022-08-08T00:19:00.936Z,22.06
2022-08-08T00:21:39.658Z,22.28
2022-08-08T00:24:17.851Z,22.42
2022-08-08T00:26:51.575Z,21.58
2022-08-08T00:29:44.172Z,21.64
2022-08-08T00:32:34.945Z,20.63
2022-08-08T00:35:26.683Z,21.26
2022-08-08T00:38:31.000Z,21.29
2022-08-08T00:41:45.075Z,20.10
2022-08-08T00:44:35.564Z,21.37
2022-08-08T00:47:36.677Z,21.94
2022-08-08T00:51:00.083Z,21.50
2022-08-08T00:54:04.202Z,21.33
2022-08-08T00:57:19.844Z,21.33
2022-08-08T01:00:14.370Z,21.33
2022-08-08T01:04:01.049Z,21.61
2022-08-08T01:07:01.789Z,21.58
2022-08-08T01:10:06.326Z,21.29
2022-08-08T01:13:09.018Z,21.20
2022-08-08T01:16:03.534Z,21.35
2022-08-08T01:19:02.624Z,20.81
2022-08-08T01:22:23.270Z,21.46
2022-08-08T01:25:26.500Z,19.91
2022-08-08T01:28:28.189Z,20.53
2022-08-08T01:32:13.237Z,20.51
2022-08-08T01:34:42.615Z,20.83
2022-08-08T01:37:58.061Z,20.34
2022-08-08T01:41:06.333Z,21.21
2022-08-08T01:43:47.526Z,20.73
2022-08-08T01:46:41.314Z,20.47
2022-08-08T01:49:23.371Z,20.57
2022-08-08T01:53:15.053Z,20.68
2022-08-08T01:55:26.364Z,20.65
2022-08-08T01:58:38.455Z,21.11
2022-08-08T02:01:23.895Z,20.60
2022-08-08T02:04:16.748Z,20.01
2022-08-08T02:07:01.423Z,20.98
2022-08-08T02:10:04.113Z,21.25
2022-08-08T02:12:51.641Z,21.73
2022-08-08T02:15:31.056Z,21.50
2022-08-08T02:18:12.563Z,20.77
2022-08-08T02:21:13.449Z,20.47
2022-08-08T02:23:54.562Z,19.32
2022-08-08T02:26:30.135Z,20.23
2022-08-08T02:29:14.930Z,20.83
2022-08-08T02:32:07.338Z,20.72
2022-08-08T02:35:11.295Z,21.22
2022-08-08T02:38:25.418Z,20.67
2022-08-08T02:41:58.902Z,20.77
2022-08-08T02:44:59.385Z,19.13
2022-08-08T02:48:25.746Z,18.84
2022-08-08T02:51:55.482Z,19.74
2022-08-08T02:55:20.068Z,19.20
2022-08-08T02:58:44.526Z,19.63
2022-08-08T03:01:50.449Z,19.97
2022-08-08T03:05:03.639Z,20.15
2022-08-08T03:08:18.800Z,19.20
2022-08-08T03:11:47.560Z,20.40
2022-08-08T03:15:57.991Z,20.20
2022-08-08T03:17:39.334Z,19.88
2022-08-08T03:20:11.354Z,19.45
2022-08-08T03:22:55.880Z,19.39
2022-08-08T03:25:35.715Z,18.95
2022-08-08T03:28:11.269Z,18.86
2022-08-08T03:30:48.753Z,19.87
2022-08-08T03:33:56.696Z,19.57
2022-08-08T03:36:10.785Z,20.32
2022-08-08T03:38:57.603Z,20.74
2022-08-08T03:42:13.152Z,20.89
2022-08-08T03:44:32.727Z,21.07
2022-08-08T03:47:07.071Z,20.27
2022-08-08T03:50:00.845Z,20.66
2022-08-08T03:52:35.658Z,20.12
2022-08-08T03:55:55.013Z,20.28
2022-08-08T03:58:34.620Z,20.16
2022-08-08T04:01:01.664Z,20.50
2022-08-08T04:03:57.265Z,20.64
2022-08-08T04:06:24.634Z,20.40
2022-08-08T04:09:06.811Z,20.34
2022-08-08T04:11:48.469Z,20.52
2022-08-08T04:14:33.334Z,20.01
2022-08-08T04:17:04.385Z,19.09
2022-08-08T04:19:36.721Z,19.55
2022-08-08T04:22:05.368Z,19.50
2022-08-08T04:24:40.207Z,19.84
2022-08-08T04:27:42.980Z,20.06
2022-08-08T04:30:18.608Z,18.84
2022-08-08T04:32:50.390Z,18.65
2022-08-08T04:35:22.739Z,18.71
2022-08-08T04:37:52.141Z,19.20
2022-08-08T04:40:24.468Z,19.30
2022-08-08T04:43:01.154Z,18.76
2022-08-08T04:45:35.031Z,18.25
2022-08-08T04:48:05.146Z,18.78
2022-08-08T04:50:40.174Z,17.66
2022-08-08T04:54:37.405Z,17.14
2022-08-08T04:56:02.558Z,16.82
2022-08-08T04:58:35.497Z,17.69
2022-08-08T05:01:08.947Z,18.27
2022-08-08T05:04:10.272Z,18.67
2022-08-08T05:06:32.522Z,18.80
2022-08-08T05:09:02.225Z,19.23
2022-08-08T05:11:38.914Z,19.39
2022-08-08T05:14:11.997Z,19.41
2022-08-08T05:16:54.930Z,19.46
2022-08-08T05:20:11.293Z,19.66
2022-08-08T05:22:21.798Z,19.06
2022-08-08T05:24:51.838Z,19.29
2022-08-08T05:27:22.631Z,19.48
2022-08-08T05:29:54.925Z,19.66
2022-08-08T05:32:36.432Z,20.03
2022-08-08T05:35:09.652Z,19.37
2022-08-08T05:37:52.585Z,20.27
2022-08-08T05:40:28.765Z,20.36
2022-08-08T05:43:15.499Z,20.21
2022-08-08T05:46:03.550Z,20.18
2022-08-08T05:48:36.258Z,20.62
2022-08-08T05:51:14.897Z,20.55
2022-08-08T05:54:24.050Z,20.34
2022-08-08T05:56:42.611Z,20.99
2022-08-08T05:59:59.054Z,20.56
2022-08-08T06:02:34.832Z,21.06
2022-08-08T06:05:06.758Z,21.42
2022-08-08T06:08:02.569Z,21.03
2022-08-08T06:10:40.708Z,21.31
2022-08-08T06:13:12.480Z,21.16
2022-08-08T06:15:50.575Z,21.17
2022-08-08T06:18:30.119Z,21.29
2022-08-08T06:21:03.597Z,21.93
2022-08-08T06:24:02.310Z,21.91
2022-08-08T06:26:44.494Z,22.12
2022-08-08T06:29:49.408Z,22.13
2022-08-08T06:32:15.185Z,21.90
2022-08-08T06:35:12.417Z,21.69
2022-08-08T06:37:50.823Z,22.17
2022-08-08T06:40:25.849Z,21.58
2022-08-08T06:42:56.533Z,22.18
2022-08-08T06:45:33.993Z,22.21
2022-08-08T06:48:04.452Z,22.77
2022-08-08T06:50:38.366Z,22.71
2022-08-08T06:53:09.819Z,23.47
2022-08-08T06:55:44.072Z,23.64
2022-08-08T06:58:15.642Z,24.14
2022-08-08T07:00:51.549Z,23.60
2022-08-08T07:04:35.529Z,24.09
2022-08-08T07:06:26.973Z,22.55
2022-08-08T07:08:59.465Z,23.91
2022-08-08T07:11:50.858Z,24.28
2022-08-08T07:14:27.275Z,24.36
2022-08-08T07:17:08.952Z,24.88
2022-08-08T07:19:44.363Z,25.14
2022-08-08T07:22:19.386Z,24.97
2022-08-08T07:24:55.300Z,25.70
2022-08-08T07:27:35.272Z,23.55
2022-08-08T07:30:25.362Z,23.97
2022-08-08T07:32:59.592Z,24.30
2022-08-08T07:35:30.886Z,25.56
2022-08-08T07:38:10.009Z,25.38
2022-08-08T07:40:45.407Z,26.76
2022-08-08T07:43:16.727Z,26.66
2022-08-08T07:46:19.271Z,27.55
2022-08-08T07:48:42.434Z,25.64
2022-08-08T07:51:23.795Z,26.17
2022-08-08T07:54:09.174Z,27.69
2022-08-08T07:56:48.402Z,27.43
2022-08-08T07:59:19.261Z,27.27
2022-08-08T08:02:33.051Z,26.11
2022-08-08T08:04:52.129Z,28.12
2022-08-08T08:07:31.804Z,26.91
2022-08-08T08:10:12.374Z,27.23
2022-08-08T08:12:53.231Z,29.19
2022-08-08T08:15:32.192Z,29.70
2022-08-08T08:18:06.121Z,28.14
2022-08-08T08:20:44.817Z,30.35
2022-08-08T08:23:14.227Z,29.34
2022-08-08T08:25:52.990Z,29.28
2022-08-08T08:28:25.966Z,29.75
2022-08-08T08:30:58.499Z,29.95
2022-08-08T08:33:28.320Z,29.73
2022-08-08T08:36:20.155Z,30.65
2022-08-08T08:38:49.496Z,31.48
2022-08-08T08:41:25.279Z,31.62
2022-08-08T08:44:13.473Z,32.35
2022-08-08T08:46:47.414Z,31.52
2022-08-08T08:49:25.991Z,31.50
2022-08-08T08:52:02.947Z,32.77
2022-08-08T08:54:35.222Z,31.33
2022-08-08T08:57:14.491Z,29.05
2022-08-08T08:59:59.451Z,31.35
2022-08-08T09:02:37.264Z,32.14
2022-08-08T09:05:28.871Z,31.98
2022-08-08T09:08:18.160Z,32.68
2022-08-08T09:10:48.571Z,32.38
2022-08-08T09:13:25.139Z,33.16
2022-08-08T09:16:03.940Z,33.13
2022-08-08T09:18:35.428Z,32.32
2022-08-08T09:21:58.544Z,33.62
2022-08-08T09:23:56.495Z,30.21
2022-08-08T09:26:39.461Z,32.45
2022-08-08T09:29:22.603Z,30.57
2022-08-08T09:31:57.681Z,32.62
2022-08-08T09:34:37.574Z,32.63
2022-08-08T09:37:58.508Z,32.26
2022-08-08T09:40:11.478Z,32.27
2022-08-08T09:42:44.384Z,31.48
2022-08-08T09:45:54.886Z,33.46
2022-08-08T09:48:17.712Z,33.10
2022-08-08T09:50:56.042Z,33.38
2022-08-08T09:53:53.272Z,32.52
2022-08-08T09:56:22.061Z,31.96
2022-08-08T09:58:58.421Z,32.31
2022-08-08T10:01:59.777Z,32.76
2022-08-08T10:04:38.370Z,33.16
2022-08-08T10:07:13.922Z,34.07
2022-08-08T10:10:00.701Z,32.75
2022-08-08T10:12:37.993Z,35.44
2022-08-08T10:15:22.464Z,32.94
2022-08-08T10:18:05.635Z,32.69
2022-08-08T10:20:51.297Z,32.23
2022-08-08T10:23:44.008Z,32.95
2022-08-08T10:26:29.966Z,32.19
2022-08-08T10:29:06.250Z,34.67
2022-08-08T10:31:54.954Z,36.29
2022-08-08T10:34:27.534Z,35.83
2022-08-08T10:36:59.874Z,36.50
2022-08-08T10:39:43.138Z,33.31
2022-08-08T10:42:20.772Z,31.23
2022-08-08T10:44:49.351Z,31.94
2022-08-08T10:47:20.999Z,32.81
2022-08-08T10:50:01.967Z,34.81
2022-08-08T10:52:32.971Z,34.01
2022-08-08T10:55:05.088Z,35.50
2022-08-08T10:57:49.670Z,37.04
2022-08-08T11:00:25.491Z,36.17
2022-08-08T11:02:54.603Z,36.90
2022-08-08T11:05:24.347Z,38.28
2022-08-08T11:08:38.686Z,37.97
2022-08-08T11:10:45.679Z,37.20
2022-08-08T11:13:29.022Z,37.14
2022-08-08T11:16:01.047Z,39.74
2022-08-08T11:18:36.604Z,39.80
2022-08-08T11:21:10.113Z,39.94
2022-08-08T11:23:42.730Z,40.26
2022-08-08T11:26:19.405Z,39.21
2022-08-08T11:28:50.444Z,39.27
2022-08-08T11:31:20.837Z,38.24
2022-08-08T11:34:03.021Z,39.61
2022-08-08T11:36:36.410Z,37.89
2022-08-08T11:39:05.114Z,37.98
2022-08-08T11:41:39.881Z,37.91
2022-08-08T11:44:13.366Z,36.38
2022-08-08T11:46:42.294Z,39.71
2022-08-08T11:49:14.288Z,39.60
2022-08-08T11:51:50.474Z,39.79
2022-08-08T11:54:33.484Z,39.47
2022-08-08T11:57:14.317Z,38.65
2022-08-08T12:00:01.739Z,40.93
2022-08-08T12:02:47.419Z,42.02
2022-08-08T12:05:16.209Z,41.91
2022-08-08T12:07:51.599Z,40.75
2022-08-08T12:10:22.048Z,41.13
2022-08-08T12:12:55.966Z,41.66
2022-08-08T12:15:28.670Z,42.26
2022-08-08T12:17:56.545Z,42.86
2022-08-08T12:20:25.285Z,39.75
2022-08-08T12:22:57.104Z,38.17
2022-08-08T12:25:29.889Z,38.37
2022-08-08T12:28:15.656Z,39.30
2022-08-08T12:30:47.962Z,39.47
2022-08-08T12:33:19.542Z,38.41
2022-08-08T12:35:52.491Z,40.20
2022-08-08T12:38:30.293Z,39.85
2022-08-08T12:41:10.525Z,41.87
2022-08-08T12:43:59.523Z,40.11
2022-08-08T12:46:28.743Z,42.63
2022-08-08T12:51:59.300Z,41.74
2022-08-08T12:54:33.371Z,41.34
2022-08-08T12:57:15.220Z,38.86
2022-08-08T13:00:03.412Z,37.95
2022-08-08T13:02:35.984Z,38.70
2022-08-08T13:05:25.985Z,38.96
2022-08-08T13:08:02.858Z,39.90
2022-08-08T13:10:46.095Z,37.62
2022-08-08T13:13:34.744Z,38.83
2022-08-08T13:16:18.770Z,39.75
2022-08-08T13:18:57.238Z,39.85
2022-08-08T13:21:36.317Z,40.25
2022-08-08T13:24:18.798Z,39.55
2022-08-08T13:27:06.053Z,38.78
2022-08-08T13:29:49.573Z,38.86
2022-08-08T13:32:20.911Z,38.58
2022-08-08T13:34:57.717Z,38.50
2022-08-08T13:38:04.837Z,38.68
2022-08-08T13:40:18.032Z,39.82
2022-08-08T13:42:57.914Z,38.52
2022-08-08T13:45:26.523Z,38.41
2022-08-08T13:47:58.921Z,39.24
2022-08-08T13:50:35.690Z,39.06
2022-08-08T13:53:22.751Z,37.85
2022-08-08T13:55:58.957Z,37.13
2022-08-08T13:58:30.183Z,37.05
2022-08-08T14:00:58.302Z,37.76
2022-08-08T14:03:53.563Z,37.95
2022-08-08T14:06:32.690Z,37.33
2022-08-08T14:09:25.404Z,37.98
2022-08-08T14:11:49.617Z,37.38
2022-08-08T14:14:21.043Z,38.35
2022-08-08T14:16:55.555Z,37.99
2022-08-08T14:19:57.256Z,37.54
2022-08-08T14:22:25.495Z,37.73
2022-08-08T14:24:55.721Z,38.51
2022-08-08T14:27:29.713Z,38.74
2022-08-08T14:30:03.741Z,38.57
2022-08-08T14:32:47.771Z,38.06
2022-08-08T14:35:23.179Z,38.24
2022-08-08T14:38:00.299Z,37.07
2022-08-08T14:40:31.758Z,37.98
2022-08-08T14:43:01.497Z,38.01
2022-08-08T14:46:01.396Z,38.53
2022-08-08T14:48:34.717Z,38.20
2022-08-08T14:51:07.796Z,37.40
2022-08-08T14:53:37.426Z,37.89
2022-08-08T14:56:25.052Z,38.10
2022-08-08T14:58:54.297Z,37.96
2022-08-08T15:01:40.647Z,38.34
2022-08-08T15:04:10.391Z,38.05
2022-08-08T15:06:39.123Z,37.76
2022-08-08T15:09:10.270Z,37.94
2022-08-08T15:11:45.988Z,37.63
2022-08-08T15:14:24.954Z,38.04
2022-08-08T15:16:54.971Z,37.91
2022-08-08T15:19:28.091Z,37.93
2022-08-08T15:21:57.789Z,37.73
2022-08-08T15:24:31.257Z,38.05
2022-08-08T15:27:07.384Z,37.55
2022-08-08T15:29:48.060Z,37.47
2022-08-08T15:32:20.793Z,37.44
2022-08-08T15:34:50.987Z,37.35
2022-08-08T15:37:19.052Z,37.59
2022-08-08T15:39:48.085Z,37.37
2022-08-08T15:42:31.908Z,36.89
2022-08-08T15:45:00.841Z,37.61
2022-08-08T15:47:31.402Z,37.55
2022-08-08T15:50:00.559Z,36.99
2022-08-08T15:52:29.901Z,36.94
2022-08-08T15:55:00.854Z,36.62
2022-08-08T15:57:35.698Z,37.26
2022-08-08T16:00:27.209Z,36.95
2022-08-08T16:02:59.061Z,36.75
2022-08-08T16:05:35.763Z,35.84
2022-08-08T16:08:17.849Z,35.88
2022-08-08T16:13:05.027Z,36.01
2022-08-08T16:13:45.213Z,36.14
2022-08-08T16:16:17.652Z,36.45
2022-08-08T16:18:53.138Z,37.46
2022-08-08T16:21:27.903Z,37.17
2022-08-08T16:23:57.279Z,37.75
2022-08-08T16:26:34.331Z,37.83
2022-08-08T16:29:09.471Z,36.35
2022-08-08T16:31:41.819Z,36.67
2022-08-08T16:34:11.477Z,36.44
2022-08-08T16:36:40.760Z,36.35
2022-08-08T16:39:28.107Z,36.17
2022-08-08T16:42:01.204Z,37.42
2022-08-08T16:44:33.743Z,36.07
2022-08-08T16:47:16.882Z,36.24
2022-08-08T16:49:47.734Z,36.66
2022-08-08T16:55:06.928Z,36.34
2022-08-08T16:55:34.403Z,35.81
2022-08-08T16:58:15.395Z,36.92
2022-08-08T17:00:49.261Z,36.64
2022-08-08T17:03:25.079Z,36.13
2022-08-08T17:06:23.518Z,36.68
2022-08-08T17:08:57.667Z,37.37
2022-08-08T17:11:28.421Z,37.05
2022-08-08T17:14:19.727Z,36.96
2022-08-08T17:16:58.206Z,36.83
2022-08-08T17:19:27.103Z,36.65
2022-08-08T17:21:56.607Z,36.25
2022-08-08T17:24:28.303Z,36.04
2022-08-08T17:26:59.089Z,37.13
2022-08-08T17:29:27.150Z,36.46
2022-08-08T17:31:55.049Z,36.83
2022-08-08T17:34:47.938Z,37.60
2022-08-08T17:37:15.045Z,37.62
2022-08-08T17:40:02.836Z,38.36
2022-08-08T17:42:30.540Z,37.49
2022-08-08T17:44:58.567Z,35.57
2022-08-08T17:47:40.379Z,35.55
2022-08-08T17:50:10.296Z,33.84
2022-08-08T17:52:43.213Z,33.89
2022-08-08T17:56:05.454Z,33.92
2022-08-08T17:58:01.963Z,33.16
2022-08-08T18:00:31.078Z,32.89
2022-08-08T18:03:08.347Z,33.82
2022-08-08T18:05:48.012Z,34.45
2022-08-08T18:08:25.060Z,34.21
2022-08-08T18:11:08.341Z,34.49
2022-08-08T18:13:41.861Z,34.28
2022-08-08T18:16:11.184Z,33.35
2022-08-08T18:18:42.828Z,32.81
2022-08-08T18:21:24.847Z,32.44
2022-08-08T18:24:03.059Z,32.71
2022-08-08T18:26:31.290Z,31.85
2022-08-08T18:29:01.679Z,31.79
2022-08-08T18:31:29.666Z,32.19
2022-08-08T18:34:25.164Z,31.38
2022-08-08T18:36:46.174Z,31.43
2022-08-08T18:39:27.331Z,31.52
2022-08-08T18:42:00.001Z,31.11
2022-08-08T18:44:34.516Z,30.95
2022-08-08T18:47:03.274Z,30.30
2022-08-08T18:49:49.126Z,30.51
2022-08-08T18:52:22.756Z,30.70
2022-08-08T18:54:59.338Z,30.21
2022-08-08T18:57:31.985Z,29.97
2022-08-08T19:00:13.899Z,29.86
2022-08-08T19:02:48.078Z,29.63
2022-08-08T19:05:23.059Z,29.71
2022-08-08T19:07:52.102Z,29.79
2022-08-08T19:10:22.232Z,29.15
2022-08-08T19:12:53.539Z,29.23
2022-08-08T19:15:23.924Z,29.55
2022-08-08T19:18:31.218Z,29.47
2022-08-08T19:20:42.984Z,29.21
2022-08-08T19:23:14.446Z,29.14
2022-08-08T19:26:01.772Z,28.92
2022-08-08T19:28:36.618Z,28.65
2022-08-08T19:31:07.367Z,28.61
2022-08-08T19:33:51.591Z,28.62
2022-08-08T19:36:28.163Z,28.57
2022-08-08T19:38:56.571Z,28.76
2022-08-08T19:41:29.599Z,28.99
2022-08-08T19:44:03.454Z,29.01
2022-08-08T19:46:33.388Z,28.81
2022-08-08T19:49:02.975Z,28.30
2022-08-08T19:51:34.477Z,28.71
2022-08-08T19:54:07.682Z,28.33
2022-08-08T19:56:40.715Z,28.37
2022-08-08T19:59:10.005Z,28.51
2022-08-08T20:02:02.498Z,28.17
2022-08-08T20:04:26.315Z,27.59
2022-08-08T20:06:54.221Z,28.22
2022-08-08T20:09:24.794Z,28.33
2022-08-08T20:11:54.312Z,28.33
2022-08-08T20:14:34.498Z,28.36
2022-08-08T20:17:04.445Z,28.67
2022-08-08T20:19:34.360Z,28.68
2022-08-08T20:22:13.236Z,28.84
2022-08-08T20:24:49.184Z,28.60
2022-08-08T20:27:21.080Z,28.57
2022-08-08T20:29:55.920Z,28.60
2022-08-08T20:32:29.928Z,28.45
2022-08-08T20:35:02.390Z,28.03
2022-08-08T20:37:37.089Z,28.21
2022-08-08T20:40:20.406Z,28.31
2022-08-08T20:43:04.434Z,27.92
2022-08-08T20:45:54.894Z,27.79
2022-08-08T20:48:28.386Z,27.92
2022-08-08T20:50:56.364Z,27.90
2022-08-08T20:54:00.657Z,27.74
2022-08-08T20:56:13.994Z,27.34
2022-08-08T20:58:47.831Z,27.38
2022-08-08T21:01:19.613Z,27.22
2022-08-08T21:03:59.670Z,27.44
2022-08-08T21:06:52.789Z,27.71
2022-08-08T21:09:16.464Z,27.38
2022-08-08T21:11:50.785Z,27.79
2022-08-08T21:14:30.185Z,27.24
2022-08-08T21:17:01.741Z,26.78
2022-08-08T21:19:34.091Z,26.64
2022-08-08T21:22:12.994Z,26.74
2022-08-08T21:24:52.529Z,27.21
2022-08-08T21:28:06.614Z,27.58
2022-08-08T21:30:19.169Z,27.68
2022-08-08T21:32:51.821Z,27.64
2022-08-08T21:36:16.191Z,27.98
2022-08-08T21:38:16.580Z,28.19
2022-08-08T21:40:54.948Z,28.27
2022-08-08T21:43:25.438Z,28.23
2022-08-08T21:48:03.644Z,28.27
2022-08-08T21:48:44.786Z,28.10
2022-08-08T21:54:18.340Z,27.54
2022-08-08T21:54:30.752Z,27.62
2022-08-08T21:56:59.110Z,27.06
2022-08-08T21:59:43.816Z,25.66
2022-08-08T22:02:22.858Z,25.48
2022-08-08T22:04:51.058Z,26.16
2022-08-08T22:07:19.382Z,26.85
2022-08-08T22:09:47.335Z,26.14
2022-08-08T22:12:17.313Z,25.24
2022-08-08T22:14:47.387Z,24.32
2022-08-08T22:17:19.417Z,24.84
2022-08-08T22:20:11.174Z,23.96
2022-08-08T22:22:38.162Z,23.34
2022-08-08T22:25:24.771Z,23.33
2022-08-08T22:28:02.675Z,23.78
2022-08-08T22:30:33.508Z,23.57
2022-08-08T22:33:09.147Z,23.76
2022-08-08T22:36:04.484Z,22.03
2022-08-08T22:38:48.677Z,22.30
2022-08-08T22:41:21.490Z,22.01
2022-08-08T22:44:02.648Z,21.64
2022-08-08T22:46:34.212Z,21.89
2022-08-08T22:49:03.365Z,22.45
2022-08-08T22:51:35.103Z,22.14
2022-08-08T22:54:33.312Z,23.25
2022-08-08T22:56:58.488Z,23.33
2022-08-08T22:59:26.475Z,23.79
2022-08-08T23:02:12.657Z,23.58
2022-08-08T23:04:56.161Z,23.24
2022-08-08T23:07:51.430Z,23.14
2022-08-08T23:10:21.124Z,23.94
2022-08-08T23:12:51.626Z,22.55
2022-08-08T23:16:37.579Z,23.20
2022-08-08T23:18:12.039Z,24.29
2022-08-08T23:20:43.329Z,23.33
2022-08-08T23:23:12.885Z,23.54
2022-08-08T23:25:48.435Z,23.69
2022-08-08T23:28:18.928Z,24.12
2022-08-08T23:30:47.784Z,23.97
2022-08-08T23:33:20.850Z,23.49
2022-08-08T23:36:08.363Z,24.59
2022-08-08T23:38:44.040Z,23.81
2022-08-08T23:41:25.052Z,24.58
2022-08-08T23:43:56.626Z,24.67
2022-08-08T23:49:00.796Z,23.50
2022-08-08T23:49:14.782Z,23.86
2022-08-08T23:52:04.093Z,23.26
2022-08-08T23:54:42.087Z,23.73
2022-08-08T23:57:26.301Z,23.78
